Latest Coastal Weather Observations for Yeppoon

IDQ60701

Issued at 5:52 pm EST Tuesday 24 October 2017 (issued every 10 minutes, with the page automatically refreshed every 10 minutes)

About coastal observations | Map of coastal stations | Coastal observations for QLD | Marine services | Other Formats
Station Details ID: 033294 Name: YEPPOON THE ESPLANADE Lat: -23.14 Lon: 150.75 Height: 5.5 m
Data from the previous 72 hours. | See also: Recent months at Yeppoon
Date/Time
EST
Temp
°C
Wind Pressure Rain since
9am
mm
Weather Cloud Vis
km
Sea
Height
m
Swell
Dir  Spd
kts
Gust
kts
hPa Trend Height
m
Period
s
Dir
24/05:30pm 23.8 ENE 11 14 1017.9 - 0.0 - - - - - - -
24/05:00pm 24.0 ENE 13 16 1017.6 - 0.0 - - - - - - -
24/04:30pm 24.1 ENE 11 15 1017.2 - 0.0 - - - - - - -
24/04:00pm 24.3 ENE 12 14 1017.0 - 0.0 - - - - - - -
24/03:30pm 24.5 ENE 12 14 1017.1 - 0.0 - - - - - - -
24/03:00pm 24.6 ENE 12 15 1017.4 - 0.0 - - - - - - -
24/02:30pm 24.5 ENE 11 14 1017.8 - 0.0 - - - - - - -
24/02:00pm 24.6 ENE 11 14 1018.1 - 0.0 - - - - - - -
24/01:30pm 24.8 ENE 11 13 1018.3 - 0.0 - - - - - - -
24/01:00pm 25.0 E 11 14 1018.5 - 0.0 - - - - - - -
24/12:30pm 25.1 E 11 13 1019.0 - 0.0 - - - - - - -
24/12:00pm 24.8 ESE 11 13 1019.3 - 0.0 - - - - - - -
24/11:30am 24.7 ESE 11 15 1019.7 - 0.0 - - - - - - -
24/11:00am 24.2 ESE 12 15 1019.9 - 0.0 - - - - - - -
24/10:30am 24.5 ESE 12 15 1020.1 - 0.0 - - - - - - -
24/10:00am 24.3 ESE 12 15 1020.2 - 0.0 - - - - - - -
24/09:30am 24.3 ESE 11 17 1020.3 - 0.0 - - - - - - -
24/09:00am 23.7 ESE 9 14 1020.2 - 0.2 - - - - - - -
24/08:30am 23.1 SE 9 12 1020.0 - 0.2 - - - - - - -
24/08:00am 22.7 SE 9 13 1019.8 - 0.2 - - - - - - -
24/07:30am 22.3 SSE 10 15 1019.5 - 0.2 - - - - - - -
24/07:00am 22.1 SSE 7 11 1019.1 - 0.2 - - - - - - -
24/06:30am 21.9 SE 11 17 1018.5 - 0.2 - - - - - - -
24/06:00am 20.7 SE 5 8 1018.2 - 0.2 - - - - - - -
24/05:30am 20.2 SSE 6 15 1017.9 - 0.2 - - - - - - -
24/05:00am 21.0 S 5 13 1017.4 - 0.2 - - - - - - -
24/04:30am 19.6 S 5 7 1017.3 - 0.2 - - - - - - -
24/04:00am 20.7 SSE 7 11 1016.9 - 0.2 - - - - - - -
24/03:30am 20.7 SSE 7 11 1016.6 - 0.2 - - - - - - -
24/03:00am 21.1 SSE 10 14 1016.3 - 0.2 Recent precip. - - - - - -
24/02:30am 21.6 SSE 11 16 1016.1 - 0.2 - - - - - - -
24/02:00am 22.2 SE 10 16 1016.2 - 0.0 - - - - - - -
24/01:30am 22.3 ESE 12 18 1016.2 - 0.0 - - - - - - -
24/01:00am 23.1 E 13 16 1016.4 - 0.0 - - - - - - -
24/12:30am 23.0 ESE 12 16 1016.4 - 0.0 - - - - - - -
24/12:00am 22.9 ESE 12 16 1016.3 - 0.0 - - - - - - -
 
Date/Time
EST
Temp
°C
Wind Pressure Rain since
9am
mm
Weather Cloud Vis
km
Sea
Height
m
Swell
Dir  Spd
kts
Gust
kts
hPa Trend Height
m
Period
s
Dir
23/11:30pm 22.9 ESE 12 16 1016.5 - 0.0 - - - - - - -
23/11:00pm 23.2 E 12 14 1016.5 - 0.0 - - - - - - -
23/10:30pm 22.9 ESE 9 13 1016.7 - 0.0 - - - - - - -
23/10:00pm 23.2 E 10 13 1016.8 - 0.0 - - - - - - -
23/09:30pm 23.2 E 10 13 1016.5 - 0.0 - - - - - - -
23/09:00pm 23.3 ENE 10 12 1016.4 - 0.0 - - - - - - -
23/08:30pm 23.3 ENE 10 13 1016.2 - 0.0 - - - - - - -
23/08:00pm 23.3 NE 10 13 1015.9 - 0.0 - - - - - - -
23/07:30pm 23.3 NE 10 13 1015.5 - 0.0 - - - - - - -
23/07:00pm 23.2 NE 10 13 1015.0 - 0.0 - - - - - - -
23/06:30pm 23.1 NE 10 13 1014.5 - 0.0 - - - - - - -
23/06:00pm 23.2 NE 11 15 1014.1 - 0.0 - - - - - - -
23/05:30pm 23.3 NE 11 15 1013.6 - 0.0 - - - - - - -
23/05:00pm 23.6 NE 9 12 1013.4 - 0.0 - - - - - - -
23/04:30pm 23.5 NE 11 14 1013.2 - 0.0 - - - - - - -
23/04:00pm 23.9 ENE 11 13 1013.1 - 0.0 - - - - - - -
23/03:30pm 24.4 NE 11 15 1012.9 - 0.0 - - - - - - -
23/03:00pm 23.9 ENE 11 15 1013.1 - 0.0 - - - - - - -
23/02:30pm 23.9 ENE 12 15 1013.1 - 0.0 - - - - - - -
23/02:00pm 24.3 ENE 13 16 1013.4 - 0.0 - - - - - - -
23/01:30pm 23.8 ENE 13 16 1013.8 - 0.0 - - - - - - -
23/01:00pm 23.8 ENE 12 15 1014.3 - 0.0 - - - - - - -
23/12:30pm 24.1 E 11 13 1014.6 - 0.0 - - - - - - -
23/12:00pm 24.7 ESE 11 15 1014.9 - 0.0 - - - - - - -
23/11:30am 24.2 ESE 9 15 1015.2 - 0.0 - - - - - - -
23/11:00am 24.2 ESE 9 12 1015.0 - 0.0 - - - - - - -
23/10:30am 23.4 E 9 11 1014.5 - 0.0 - - - - - - -
23/10:00am 23.2 E 8 12 1014.6 - 0.0 - - - - - - -
23/09:30am 23.5 ESE 7 11 1015.0 - 0.0 - - - - - - -
23/09:00am 22.4 SSE 5 8 1014.9 - 16.8 - - - - - - -
23/08:30am 20.2 SSW 7 10 1015.0 - 16.8 - - - - - - -
23/08:00am 18.3 SSW 7 11 1014.7 - 16.8 - - - - - - -
23/07:30am 16.8 NW 7 11 1013.2 - 16.8 - - - - - - -
23/07:00am 16.4 W 8 11 1014.7 - 16.4 - - - - - - -
23/06:30am 16.6 W 12 18 1014.8 - 16.0 - - - - - - -
23/06:00am 17.1 SE 5 8 1013.8 - 16.0 Recent precip. - - - - - -
23/05:30am 15.9 SW 7 11 1013.9 - 15.8 - - - - - - -
23/05:00am 18.9 SSW 15 27 1013.4 - 0.0 - - - - - - -
23/04:59am 18.9 SSW 15 27 1013.2 - 0.0 - - - - - - -
23/04:56am 19.0 SSW 15 24 1013.1 - 0.0 - - - - - - -
23/04:30am 18.1 NW 4 6 1012.5 - 0.0 - - - - - - -
23/04:00am 18.5 NW 4 6 1012.1 - 0.0 - - - - - - -
23/03:30am 18.3 NW 5 7 1011.8 - 0.0 - - - - - - -
23/03:00am 18.7 NW 5 7 1011.7 - 0.0 - - - - - - -
23/02:30am 18.8 NW 5 6 1011.8 - 0.0 - - - - - - -
23/02:00am 19.0 NW 5 6 1012.2 - 0.0 - - - - - - -
23/01:30am 19.5 NW 6 7 1012.4 - 0.0 - - - - - - -
23/01:00am 20.8 NE 5 6 1012.8 - 0.0 - - - - - - -
23/12:30am 22.9 NE 7 9 1012.9 - 0.0 - - - - - - -
23/12:00am 22.9 ENE 8 11 1012.9 - 0.0 - - - - - - -
 
Date/Time
EST
Temp
°C
Wind Pressure Rain since
9am
mm
Weather Cloud Vis
km
Sea
Height
m
Swell
Dir  Spd
kts
Gust
kts
hPa Trend Height
m
Period
s
Dir
22/11:30pm 22.9 NE 9 11 1013.1 - 0.0 - - - - - - -
22/11:00pm 23.0 ENE 9 11 1013.3 - 0.0 - - - - - - -
22/10:30pm 23.0 ENE 9 12 1013.5 - 0.0 - - - - - - -
22/10:00pm 23.2 ENE 10 12 1013.5 - 0.0 - - - - - - -
22/09:30pm 23.0 ENE 9 11 1013.4 - 0.0 - - - - - - -
22/09:00pm 23.1 NE 9 11 1013.1 - 0.0 - - - - - - -
22/08:30pm 23.1 NE 8 11 1012.8 - 0.0 - - - - - - -
22/08:00pm 23.1 NE 8 11 1012.6 - 0.0 - - - - - - -
22/07:30pm 22.9 ENE 9 10 1012.2 - 0.0 - - - - - - -
22/07:00pm 23.1 ENE 9 11 1011.8 - 0.0 - - - - - - -
22/06:30pm 22.9 ENE 10 11 1011.4 - 0.0 - - - - - - -
22/06:00pm 22.9 ENE 9 10 1011.1 - 0.0 - - - - - - -
22/05:30pm 23.2 ENE 9 12 1010.6 - 0.0 - - - - - - -
22/05:00pm 23.3 ENE 10 11 1010.4 - 0.0 - - - - - - -
22/04:30pm 23.6 ENE 8 10 1010.1 - 0.0 - - - - - - -
22/04:00pm 24.0 NE 9 11 1010.0 - 0.0 - - - - - - -
22/03:30pm 23.9 NE 8 10 1010.2 - 0.0 - - - - - - -
22/03:00pm 24.1 NE 8 11 1010.2 - 0.0 - - - - - - -
22/02:30pm 23.8 NE 9 11 1010.5 - 0.0 - - - - - - -
22/02:00pm 23.8 ENE 10 11 1010.7 - 0.0 - - - - - - -
22/01:30pm 23.2 ENE 10 11 1011.0 - 0.0 - - - - - - -
22/01:00pm 23.4 ENE 9 11 1011.5 - 0.0 - - - - - - -
22/12:30pm 23.4 E 9 11 1011.8 - 0.0 - - - - - - -
22/12:00pm 23.3 E 9 12 1012.0 - 0.0 - - - - - - -
22/11:30am 23.4 ESE 9 11 1012.5 - 0.0 - - - - - - -
22/11:00am 22.7 ESE 8 12 1012.8 - 0.0 - - - - - - -
22/10:30am 22.4 SE 7 11 1012.9 - 0.0 - - - - - - -
22/10:00am 21.9 SE 6 8 1013.1 - 0.0 - - - - - - -
22/09:30am 21.7 SE 6 9 1013.4 - 0.0 - - - - - - -
22/09:00am 21.1 SSE 8 11 1013.4 - 2.2 - - - - - - -
22/08:30am 20.8 SSE 8 11 1013.2 - 2.2 - - - - - - -
22/08:00am 20.6 SE 9 13 1013.2 - 2.2 - - - - - - -
22/07:30am 20.6 SSE 9 13 1013.1 - 2.2 - - - - - - -
22/07:00am 20.0 S 8 11 1012.7 - 2.2 - - - - - - -
22/06:30am 19.6 S 7 9 1012.4 - 2.2 - - - - - - -
22/06:00am 19.4 SSW 6 8 1012.2 - 2.0 - - - - - - -
22/05:30am 19.5 WSW 4 5 1011.9 - 2.0 - - - - - - -
22/05:00am 19.4 WSW 5 7 1011.7 - 2.0 - - - - - - -
22/04:30am 19.3 WSW 4 5 1011.4 - 2.0 - - - - - - -
22/04:00am 19.3 WSW 6 8 1011.4 - 2.0 - - - - - - -
22/03:30am 19.6 WSW 6 8 1011.1 - 2.0 - - - - - - -
22/03:00am 19.7 WSW 2 4 1011.1 - 2.0 - - - - - - -
22/02:30am 19.8 WSW 5 7 1011.2 - 2.0 - - - - - - -
22/02:00am 19.9 WSW 4 5 1011.5 - 2.0 - - - - - - -
22/01:30am 20.0 WSW 5 6 1011.8 - 2.0 - - - - - - -
22/01:00am 20.1 WSW 5 6 1011.9 - 2.0 - - - - - - -
22/12:30am 20.1 WSW 5 7 1012.0 - 2.0 - - - - - - -
22/12:00am 20.1 WSW 4 5 1012.3 - 2.0 - - - - - - -
 
Date/Time
EST
Temp
°C
Wind Pressure Rain since
9am
mm
Weather Cloud Vis
km
Sea
Height
m
Swell
Dir  Spd
kts
Gust
kts
hPa Trend Height
m
Period
s
Dir
21/11:30pm 20.3 WSW 4 5 1012.7 - 2.0 - - - - - - -
21/11:00pm 20.4 WSW 4 5 1013.0 - 2.0 - - - - - - -
21/10:30pm 20.5 WSW 1 4 1013.2 - 2.0 - - - - - - -
21/10:00pm 20.5 WSW 3 4 1013.3 - 2.0 - - - - - - -
21/09:30pm 20.6 WSW 1 4 1013.4 - 2.0 - - - - - - -
21/09:00pm 20.6 WSW 4 5 1013.6 - 2.0 - - - - - - -
21/08:30pm 20.7 WSW 3 4 1013.4 - 2.0 - - - - - - -
21/08:00pm 20.8 CALM 0 1 1013.2 - 2.0 - - - - - - -
21/07:30pm 20.8 WSW 3 4 1012.8 - 2.0 - - - - - - -
21/07:00pm 21.0 WSW 4 5 1012.9 - 2.0 - - - - - - -
21/06:30pm 21.1 WSW 3 4 1012.7 - 2.0 - - - - - - -
21/06:00pm 21.1 WSW 2 4 1012.5 - 2.0 - - - - - - -

Other Formats:

Comma delimited format used in spreadsheet applications
http://www.bom.gov.au/fwo/IDQ60701/IDQ60701.94373.axf

JavaScript Object Notation format (JSON) in row-major order
http://www.bom.gov.au/fwo/IDQ60701/IDQ60701.94373.json